Map

Track Data

SID SEASON NUMBER BASIN SUBBASIN NAME ISO_TIME NATURE LAT LON WMO_WIND WMO_PRES WMO_AGENCY TRACK_TYPE DIST2LAND LANDFALL IFLAG USA_AGENCY USA_ATCF_ID USA_LAT USA_LON USA_RECORD USA_STATUS USA_WIND USA_PRES USA_SSHS USA_R34_NE USA_R34_SE USA_R34_SW USA_R34_NW USA_R50_NE USA_R50_SE USA_R50_SW USA_R50_NW USA_R64_NE USA_R64_SE USA_R64_SW USA_R64_NW USA_POCI USA_ROCI USA_RMW USA_EYE TOKYO_LAT TOKYO_LON TOKYO_GRADE TOKYO_WIND TOKYO_PRES TOKYO_R50_DIR TOKYO_R50_LONG TOKYO_R50_SHORT TOKYO_R30_DIR TOKYO_R30_LONG TOKYO_R30_SHORT TOKYO_LAND CMA_LAT CMA_LON CMA_CAT CMA_WIND CMA_PRES HKO_LAT HKO_LON HKO_CAT HKO_WIND HKO_PRES NEWDELHI_LAT NEWDELHI_LON NEWDELHI_GRADE NEWDELHI_WIND NEWDELHI_PRES NEWDELHI_CI NEWDELHI_DP NEWDELHI_POCI REUNION_LAT REUNION_LON REUNION_TYPE REUNION_WIND REUNION_PRES REUNION_TNUM REUNION_CI REUNION_RMW REUNION_R34_NE REUNION_R34_SE REUNION_R34_SW REUNION_R34_NW REUNION_R50_NE REUNION_R50_SE REUNION_R50_SW REUNION_R50_NW REUNION_R64_NE REUNION_R64_SE REUNION_R64_SW REUNION_R64_NW BOM_LAT BOM_LON BOM_TYPE BOM_WIND BOM_PRES BOM_TNUM BOM_CI BOM_RMW BOM_R34_NE BOM_R34_SE BOM_R34_SW BOM_R34_NW BOM_R50_NE BOM_R50_SE BOM_R50_SW BOM_R50_NW BOM_R64_NE BOM_R64_SE BOM_R64_SW BOM_R64_NW BOM_ROCI BOM_POCI BOM_EYE BOM_POS_METHOD BOM_PRES_METHOD NADI_LAT NADI_LON NADI_CAT NADI_WIND NADI_PRES WELLINGTON_LAT WELLINGTON_LON WELLINGTON_WIND WELLINGTON_PRES DS824_LAT DS824_LON DS824_STAGE DS824_WIND DS824_PRES TD9636_LAT TD9636_LON TD9636_STAGE TD9636_WIND TD9636_PRES TD9635_LAT TD9635_LON TD9635_WIND TD9635_PRES TD9635_ROCI NEUMANN_LAT NEUMANN_LON NEUMANN_CLASS NEUMANN_WIND NEUMANN_PRES MLC_LAT MLC_LON MLC_CLASS MLC_WIND MLC_PRES USA_GUST BOM_GUST BOM_GUST_PER REUNION_GUST REUNION_GUST_PER USA_SEAHGT USA_SEARAD_NE USA_SEARAD_SE USA_SEARAD_SW USA_SEARAD_NW STORM_SPEED STORM_DIR
1938068S14067 1938 18 SI MM NOT_NAMED 1938-03-09 06:00:00 NR -13.7000 66.8000 reunion main 1203 1203 _____O________ -1 -13.7000 66.8000 99 9.90000 1 250
1938068S14067 1938 18 SI MM NOT_NAMED 1938-03-09 09:00:00 NR -13.7187 66.7490 main 1195 1195 _____P________ -1 -13.7187 66.7490 99 1 249
1938068S14067 1938 18 SI MM NOT_NAMED 1938-03-09 12:00:00 NR -13.7393 66.6898 main 1195 1179 _____P________ -1 -13.7393 66.6898 99 1 251
1938068S14067 1938 18 SI MM NOT_NAMED 1938-03-09 15:00:00 NR -13.7634 66.6142 main 1179 1171 _____P________ -1 -13.7634 66.6142 99 2 253
1938068S14067 1938 18 SI MM NOT_NAMED 1938-03-09 18:00:00 NR -13.7929 66.5138 main 1171 1162 _____P________ -1 -13.7929 66.5138 99 2 254
1938068S14067 1938 18 SI MM NOT_NAMED 1938-03-09 21:00:00 NR -13.8296 66.3805 main 1162 1130 _____P________ -1 -13.8296 66.3805 99 4 255
1938068S14067 1938 18 SI MM NOT_NAMED 1938-03-10 00:00:00 TS -13.9002 66.1048 main 1130 1098 _____P___O____ -1 -13.8752 66.2060 99 -14.0000 65.7000 TC 25 6 255
1938068S14067 1938 18 SI MM NOT_NAMED 1938-03-10 03:00:00 TS -13.9877 65.7580 main 1098 1058 _____P___P____ -1 -13.9315 65.9819 99 -14.1001 65.3101 TC 25 8 256
1938068S14067 1938 18 SI MM NOT_NAMED 1938-03-10 06:00:00 TS -14.0857 65.3571 reunion main 1058 1010 _____O___O____ -1 -14.0000 65.7000 99 9.90000 -14.2000 64.9000 TC 25 9 256
1938068S14067 1938 18 SI MM NOT_NAMED 1938-03-10 09:00:00 TS -14.1908 64.9063 main 1010 970 _____P___P____ -1 -14.0816 65.3552 99 -14.3000 64.4575 TC 25 9 257
1938068S14067 1938 18 SI MM NOT_NAMED 1938-03-10 12:00:00 TS -14.2871 64.4781 main 970 924 _____P___O____ -1 -14.1742 64.9562 99 -14.4000 64.0000 TC 25 9 257
1938068S14067 1938 18 SI MM NOT_NAMED 1938-03-10 15:00:00 TS -14.3911 64.0325 main 924 916 _____P___P____ -1 -14.2747 64.5149 99 -14.5074 63.5500 TC 25 6 258
1938068S14067 1938 18 SI MM NOT_NAMED 1938-03-10 18:00:00 TS -14.4024 63.9082 main 916 908 _____P___OO___ -1 -14.3803 64.0436 99 -14.6000 63.1000 TC 25 -13.7000 66.6000 7 3 266
1938068S14067 1938 18 SI MM NOT_NAMED 1938-03-10 21:00:00 TS -14.4088 63.7573 main 908 893 _____P___PP___ -1 -14.4883 63.5542 99 -14.6500 62.6274 TC 25 -13.7688 66.4227 7 3 265
1938068S14067 1938 18 SI MM NOT_NAMED 1938-03-11 00:00:00 TS -14.4269 63.6108 main 893 878 _____P___OP___ -1 -14.5960 63.0590 99 -14.7000 62.2000 TC 25 -13.8400 66.2263 7 3 257
1938068S14067 1938 18 SI MM NOT_NAMED 1938-03-11 03:00:00 TS -14.4715 63.4802 main 878 848 _____P___PP___ -1 -14.7007 62.5702 99 -14.7999 61.8775 TC 25 -13.9163 65.9918 7 5 253
1938068S14067 1938 18 SI MM NOT_NAMED 1938-03-11 06:00:00 TS -14.5667 63.1333 reunion main 840 819 _____O___OO___ -1 -14.8000 62.1000 99 9.90000 -14.9000 61.6000 TC 25 -14.0000 65.7000 7 7 255
1938068S14067 1938 18 SI MM NOT_NAMED 1938-03-11 09:00:00 TS -14.6466 62.7853 main 819 783 _____P___PP___ -1 -14.8853 61.6968 99 -14.9574 61.3224 TC 25 -14.0926 65.3385 7 7 257
1938068S14067 1938 18 SI MM NOT_NAMED 1938-03-11 12:00:00 TS -14.7224 62.4080 main 783 748 _____P___OP___ -1 -14.9669 61.3064 99 -15.0000 61.0000 TC 25 -14.1921 64.9210 7 8 259
1938068S14067 1938 18 SI MM NOT_NAMED 1938-03-11 15:00:00 TS -14.7995 61.9854 main 748 713 _____P___PP___ -1 -15.0452 60.9264 99 -15.0501 60.5650 TC 25 -14.2954 64.4680 7 8 260
1938068S14067 1938 18 SI MM NOT_NAMED 1938-03-11 18:00:00 TS -14.8735 61.5515 main 713 669 _____P___OO___ -1 -15.1205 60.5544 99 -15.1000 60.1000 TC 25 -14.4000 64.0000 7 10 260
1938068S14067 1938 18 SI MM NOT_NAMED 1938-03-11 21:00:00 TS -14.9809 60.9173 main 663 623 _____P___P____ -1 -15.1933 60.1881 99 -15.1424 59.6849 TC 25 7 13 260
1938068S14067 1938 18 SI MM NOT_NAMED 1938-03-12 00:00:00 TS -15.0971 60.2626 main 623 584 _____P___O____ -1 -15.2640 59.8252 99 -15.2000 59.3000 TC 25 7 13 259
1938068S14067 1938 18 SI MM NOT_NAMED 1938-03-12 03:00:00 TS -15.2400 59.5849 main 584 541 _____P___P____ -1 -15.3327 59.4633 99 -15.2999 58.9500 TC 25 7 14 257
1938068S14067 1938 18 SI MM NOT_NAMED 1938-03-12 06:00:00 TS -15.4000 58.8500 reunion main 541 521 _____O___O____ -1 -15.4000 59.1000 99 9.90000 -15.4000 58.6000 TC 25 7 11 259
1938068S14067 1938 18 SI MM NOT_NAMED 1938-03-12 09:00:00 TS -15.4533 58.4754 main 521 516 _____P___P____ -1 -15.4566 58.7434 99 -15.4500 58.2074 TC 25 7 13 268
1938068S14067 1938 18 SI MM NOT_NAMED 1938-03-12 12:00:00 TS -15.4378 57.5508 main 525 525 _____P___O____ -1 -15.5101 58.3892 99 -15.5000 57.8000 TC 25 7 16 270
1938068S14067 1938 18 SI MM NOT_NAMED 1938-03-12 15:00:00 TS -15.4454 56.8013 main 531 525 _____P___P____ -1 -15.5628 58.0336 99 -15.5999 57.4000 TC 25 7 13 269
1938068S14067 1938 18 SI MM NOT_NAMED 1938-03-12 18:00:00 TS -15.4579 56.1707 main 532 532 _____P___O____ -1 -15.6173 57.6728 99 -15.7000 57.0000 TC 25 7 11 269
1938068S14067 1938 18 SI MM NOT_NAMED 1938-03-12 21:00:00 TS -15.4693 55.6266 main 546 493 _____P___P____ -1 -15.6759 57.3030 99 -15.7498 56.6224 TC 25 7 10 267
1938068S14067 1938 18 SI MM NOT_NAMED 1938-03-13 00:00:00 TS -15.5126 55.1139 main 493 440 _____P___O____ -1 -15.7410 56.9201 99 -15.8000 56.2000 TC 25 7 10 261
1938068S14067 1938 18 SI MM NOT_NAMED 1938-03-13 03:00:00 TS -15.6203 54.5884 main 440 388 _____P___P____ -1 -15.8149 56.5205 99 -15.8925 55.6725 TC 25 7 10 256
1938068S14067 1938 18 SI MM NOT_NAMED 1938-03-13 06:00:00 TS -15.7687 54.0667 reunion main 388 336 _____O___O____ -1 -15.9000 56.1000 99 9.90000 -16.0000 55.1000 TC 25 7 11 253
1938068S14067 1938 18 SI MM NOT_NAMED 1938-03-13 09:00:00 TS -15.9299 53.5415 main 326 289 _____P___P____ -1 -15.9670 55.5910 99 -16.0925 54.5349 TC 25 7 10 250
1938068S14067 1938 18 SI MM NOT_NAMED 1938-03-13 12:00:00 TS -16.1100 53.1135 main 289 256 _____P___O____ -1 -16.0401 55.0541 99 -16.2000 54.0000 TC 25 7 9 246
1938068S14067 1938 18 SI MM NOT_NAMED 1938-03-13 15:00:00 TS -16.2935 52.6810 main 256 222 _____P___P____ -1 -16.1243 54.5045 99 -16.3348 53.5349 TC 25 7 9 245
1938068S14067 1938 18 SI MM NOT_NAMED 1938-03-13 18:00:00 TS -16.4938 52.2495 main 217 187 _____P___O____ -1 -16.2248 53.9575 99 -16.5000 53.1000 TC 25 7 9 244
1938068S14067 1938 18 SI MM NOT_NAMED 1938-03-13 21:00:00 TS -16.7001 51.8222 main 187 171 _____P___P____ -1 -16.3470 53.4284 99 -16.6249 52.6569 TC 25 7 9 240
1938068S14067 1938 18 SI MM NOT_NAMED 1938-03-14 00:00:00 TS -16.9491 51.4331 main 162 145 _____P___O____ -1 -16.4965 52.9323 99 -16.9000 52.2000 TC 25 7 9 232
1938068S14067 1938 18 SI MM NOT_NAMED 1938-03-14 03:00:00 TS -17.2596 51.0860 main 149 134 _____P___P____ -1 -16.6789 52.4844 99 -17.4453 51.6409 TC 25 7 9 220
1938068S14067 1938 18 SI MM NOT_NAMED 1938-03-14 06:00:00 TS -17.6268 50.8305 reunion main 138 127 _____O___O____ -1 -16.9000 52.1000 99 9.90000 -18.2000 51.2000 TC 25 7 8 210
1938068S14067 1938 18 SI MM NOT_NAMED 1938-03-14 09:00:00 TS -17.9756 50.6586 main 131 121 _____P___P____ -1 -17.1743 51.7680 99 -19.0724 51.0618 TC 25 7 7 200
1938068S14067 1938 18 SI MM NOT_NAMED 1938-03-14 12:00:00 TS -18.2541 50.5827 main 127 118 _____P___O____ -1 -17.4895 51.4896 99 -20.0000 51.1000 TC 25 7 5 195
1938068S14067 1938 18 SI MM NOT_NAMED 1938-03-14 15:00:00 TS -18.4286 50.5280 main 118 110 _____P___P____ -1 -17.8376 51.2657 99 -20.7977 51.1354 TC 7 3 208
1938068S14067 1938 18 SI MM NOT_NAMED 1938-03-14 18:00:00 TS -18.5345 50.4290 main 110 110 _____P___P____ -1 -18.2111 51.0972 99 -21.5140 51.2338 TC 7 4 189
1938068S14067 1938 18 SI MM NOT_NAMED 1938-03-14 21:00:00 TS -18.8291 50.4547 main 134 134 _____P___P____ -1 -18.6019 50.9852 99 -22.1562 51.3829 TC 7 6 172
1938068S14067 1938 18 SI MM NOT_NAMED 1938-03-15 00:00:00 TS -19.1341 50.5103 main 143 143 _____P___P____ -1 -19.0023 50.9309 99 -22.7315 51.5696 TC 7 5 147
1938068S14067 1938 18 SI MM NOT_NAMED 1938-03-15 03:00:00 TS -19.2343 50.7336 main 167 167 _____P___P____ -1 -19.4044 50.9354 99 -23.2473 51.7808 TC 7 4 123
1938068S14067 1938 18 SI MM NOT_NAMED 1938-03-15 06:00:00 TS -19.3714 50.8957 reunion main 194 194 _____O___PO___ -1 -19.8000 51.0000 99 9.90000 -23.7106 52.0031 TC -16.9000 52.2000 7 4 142
1938068S14067 1938 18 SI MM NOT_NAMED 1938-03-15 09:00:00 TS -19.5676 51.0098 main 210 210 _____P___PP___ -1 -20.1480 51.1579 99 -24.1289 52.2230 TC -17.6603 51.7477 7 5 160
1938068S14067 1938 18 SI MM NOT_NAMED 1938-03-15 12:00:00 TS -19.8519 51.0885 main 232 232 _____P___PP___ -1 -20.4932 51.3896 99 -24.5093 52.4266 TC -18.4539 51.3624 7 7 169
1938068S14067 1938 18 SI MM NOT_NAMED 1938-03-15 15:00:00 TS -20.2795 51.1562 main 252 252 _____P___PP___ -1 -20.8370 51.6736 99 -24.8593 52.6002 TC -19.2455 51.1205 7 9 165
1938068S14067 1938 18 SI MM NOT_NAMED 1938-03-15 18:00:00 TS -20.6830 51.3225 main 272 272 _____P___PO___ -1 -21.1812 51.9877 99 -25.1861 52.7296 TC -20.0000 51.1000 7 9 151
1938068S14067 1938 18 SI MM NOT_NAMED 1938-03-15 21:00:00 TS -21.0933 51.6471 main 316 316 _____P___PP___ -1 -21.5275 52.3098 99 -25.4973 52.8010 TC -20.6985 51.4739 7 15 147
1938068S14067 1938 18 SI MM NOT_NAMED 1938-03-16 00:00:00 TS -21.9377 52.1915 main 322 309 _____P___OP___ -1 -21.8780 52.6177 99 -25.8000 52.8000 TC 25 -21.3508 52.0589 7 21 150
1938068S14067 1938 18 SI MM NOT_NAMED 1938-03-16 03:00:00 TS -22.8978 52.7700 main 313 313 _____P___PP___ -1 -22.2347 52.8886 99 -26.1075 52.7014 TC 25 -21.9521 52.6902 7 18 156
1938068S14067 1938 18 SI MM NOT_NAMED 1938-03-16 06:00:00 TS -23.6000 53.0000 reunion main 349 349 _____O___OO___ -1 -22.6000 53.1000 99 9.90000 -26.4000 52.6000 TC 25 -22.5000 53.2000 7 14 170
1938068S14067 1938 18 SI MM NOT_NAMED 1938-03-16 09:00:00 TS -24.2377 53.0270 main 400 400 _____P___PP___ -1 -23.0017 53.1687 99 -26.7000 52.5424 TC 25 -23.0113 53.3699 7 10 0
1938068S14067 1938 18 SI MM NOT_NAMED 1938-03-16 12:00:00 TS -24.6295 53.0250 main 437 437 _____P___OP___ -1 -23.4148 53.1842 99 -27.0000 52.5000 TC 25 -23.4737 53.3907 7 8 183
1938068S14067 1938 18 SI MM NOT_NAMED 1938-03-16 15:00:00 TS -25.0109 52.9739 main 475 475 _____P___PP___ -1 -23.8333 53.1559 99 -27.3000 52.4500 TC 25 -23.8993 53.3160 7 8 188
1938068S14067 1938 18 SI MM NOT_NAMED 1938-03-16 18:00:00 TS -25.3838 52.8978 main 519 519 _____P___OO___ -1 -24.2514 53.0935 99 -27.6000 52.4000 TC 25 -24.3000 53.2000 7 8 190
1938068S14067 1938 18 SI MM NOT_NAMED 1938-03-16 21:00:00 TS -25.7598 52.8273 main 563 563 _____P___PP___ -1 -24.6631 53.0067 99 -27.9075 52.3500 TC 25 -24.7088 53.1251 7 8 190
1938068S14067 1938 18 SI MM NOT_NAMED 1938-03-17 00:00:00 TS -26.1191 52.7428 main 571 571 _____P___OP___ -1 -25.0623 52.9055 99 -28.2000 52.3000 TC 25 -25.0950 53.0230 7 7 193
1938068S14067 1938 18 SI MM NOT_NAMED 1938-03-17 03:00:00 TS -26.4532 52.6506 main 584 575 _____P___PP___ -1 -25.4433 52.7999 99 -28.4575 52.2425 TC 25 -25.4588 52.9094 7 7 194
1938068S14067 1938 18 SI MM NOT_NAMED 1938-03-17 06:00:00 TS -26.7667 52.5667 reunion main 585 579 _____O___OO___ -1 -25.8000 52.7000 99 9.90000 -28.7000 52.2000 TC 25 -25.8000 52.8000 7 6 191
1938068S14067 1938 18 SI MM NOT_NAMED 1938-03-17 09:00:00 TS -27.0648 52.5173 main 587 587 _____P___PP___ -1 -26.1155 52.6460 99 -28.9575 52.1924 TC 25 -26.1215 52.7135 7 6 188
1938068S14067 1938 18 SI MM NOT_NAMED 1938-03-17 12:00:00 TS -27.3435 52.4754 main 596 596 _____P___OP___ -1 -26.4080 52.5916 99 -29.2000 52.2000 TC 25 -26.4225 52.6348 7 5 188
1938068S14067 1938 18 SI MM NOT_NAMED 1938-03-17 15:00:00 TS -27.6004 52.4337 main 602 602 _____P___PP___ -1 -26.6814 52.5376 99 -29.4075 52.2000 TC 25 -26.7122 52.5636 7 3 188
1938068S14067 1938 18 SI MM NOT_NAMED 1938-03-17 18:00:00 TS -27.6872 52.4126 main 607 607 _____P___OO___ -1 -26.9398 52.4847 99 -29.6000 52.2000 TC 25 -27.0000 52.5000 7 2 196
1938068S14067 1938 18 SI MM NOT_NAMED 1938-03-17 21:00:00 TS -27.7575 52.3890 main 613 613 _____P___PP___ -1 -27.1869 52.4338 99 -29.7975 52.2000 TC 25 -27.3081 52.4387 7 1 203
1938068S14067 1938 18 SI MM NOT_NAMED 1938-03-18 00:00:00 TS -27.7963 52.3646 main 613 604 _____P___OP___ -1 -27.4267 52.3855 99 -30.0000 52.2000 TC 25 -27.6150 52.3849 7 1 236
1938068S14067 1938 18 SI MM NOT_NAMED 1938-03-18 03:00:00 NR -27.7887 52.3397 main 604 604 _____P____P___ -1 -27.6631 52.3406 99 TC -27.9144 52.3387 7 3 192
1938068S14067 1938 18 SI MM NOT_NAMED 1938-03-18 06:00:00 NR -28.0500 52.3000 reunion main 615 615 _____O____O___ -1 -27.9000 52.3000 99 9.90000 -28.2000 52.3000 7 5 188
1938068S14067 1938 18 SI MM NOT_NAMED 1938-03-18 09:00:00 NR -28.3222 52.2599 main 634 632 _____P____P___ -1 -28.1718 52.2562 99 -28.4725 52.2637 7 5 187
1938068S14067 1938 18 SI MM NOT_NAMED 1938-03-18 12:00:00 NR -28.5868 52.2252 main 645 645 _____P____P___ -1 -28.4437 52.2155 99 -28.7300 52.2349 7 5 186
1938068S14067 1938 18 SI MM NOT_NAMED 1938-03-18 15:00:00 NR -28.8424 52.1963 main 659 659 _____P____P___ -1 -28.7124 52.1790 99 -28.9725 52.2137 7 5 184
1938068S14067 1938 18 SI MM NOT_NAMED 1938-03-18 18:00:00 NR -29.0874 52.1739 main 680 680 _____P____O___ -1 -28.9749 52.1478 99 -29.2000 52.2000 7 5 185
1938068S14067 1938 18 SI MM NOT_NAMED 1938-03-18 21:00:00 NR -29.3206 52.1583 main 695 695 _____P____P___ -1 -29.2280 52.1232 99 -29.4131 52.1934 7 4 182
1938068S14067 1938 18 SI MM NOT_NAMED 1938-03-19 00:00:00 NR -29.5314 52.1432 main 703 703 _____P____P___ -1 -29.4687 52.1062 99 -29.6150 52.1925 7 4 0
1938068S14067 1938 18 SI MM NOT_NAMED 1938-03-19 03:00:00 NR -29.7323 52.1305 main 718 718 _____P____P___ -1 -29.6937 52.0981 99 -29.8094 52.1953 7 4 0
1938068S14067 1938 18 SI MM NOT_NAMED 1938-03-19 06:00:00 NR -29.9200 52.1200 reunion main 734 734 _____O____O___ -1 -29.9000 52.1000 99 9.90000 -30.0000 52.2000 7 4 184
1938068S14067 1938 18 SI MM NOT_NAMED 1938-03-19 09:00:00 NR -30.0854 52.1127 main 750 750 _____P________ -1 -30.0854 52.1127 99 7 3 0
1938068S14067 1938 18 SI MM NOT_NAMED 1938-03-19 12:00:00 NR -30.2516 52.1352 main 767 767 _____P________ -1 -30.2516 52.1352 99 7 3 172
1938068S14067 1938 18 SI MM NOT_NAMED 1938-03-19 15:00:00 NR -30.4015 52.1662 main 781 781 _____P________ -1 -30.4015 52.1662 99 7 3 170
1938068S14067 1938 18 SI MM NOT_NAMED 1938-03-19 18:00:00 NR -30.5376 52.2043 main 790 790 _____P________ -1 -30.5376 52.2043 99 3 164
1938068S14067 1938 18 SI MM NOT_NAMED 1938-03-19 21:00:00 NR -30.6628 52.2482 main 806 806 _____P________ -1 -30.6628 52.2482 99 3 163
1938068S14067 1938 18 SI MM NOT_NAMED 1938-03-20 00:00:00 NR -30.7798 52.2963 main 821 821 _____P________ -1 -30.7798 52.2963 99 2 160
1938068S14067 1938 18 SI MM NOT_NAMED 1938-03-20 03:00:00 NR -30.8913 52.3474 main 830 830 _____P________ -1 -30.8913 52.3474 99 2 158
1938068S14067 1938 18 SI MM NOT_NAMED 1938-03-20 06:00:00 NR -31.0000 52.4000 reunion main 844 _____O________ -1 -31.0000 52.4000 99 9.90000 2 156

About IBTrACS Database

This database is a web-friendly format of International Best Track Archive for Climate Stewardship (IBTrACS), a global best track data archive curated by NOAA dating back to 1842.

Updated: 2021-10-08